createdAt,value
2018-07-02T00:00:19.782Z,19.00
2018-07-02T00:00:51.710Z,19.00
2018-07-02T00:01:23.638Z,19.00
2018-07-02T00:01:55.602Z,19.00
2018-07-02T00:02:27.549Z,19.00
2018-07-02T00:02:59.521Z,19.00
2018-07-02T00:04:03.471Z,19.00
2018-07-02T00:04:35.417Z,19.00
2018-07-02T00:05:07.352Z,19.00
2018-07-02T00:05:39.295Z,19.00
2018-07-02T00:06:11.326Z,19.00
2018-07-02T00:06:43.306Z,19.00
2018-07-02T00:07:15.211Z,19.00
2018-07-02T00:07:47.144Z,18.90
2018-07-02T00:08:19.080Z,18.90
2018-07-02T00:08:51.184Z,18.90
2018-07-02T00:09:23.134Z,18.90
2018-07-02T00:09:55.060Z,18.90
2018-07-02T00:10:27.011Z,18.90
2018-07-02T00:10:59.077Z,18.90
2018-07-02T00:11:30.787Z,18.90
2018-07-02T00:12:02.738Z,18.90
2018-07-02T00:12:34.665Z,19.00
2018-07-02T00:13:06.614Z,18.90
2018-07-02T00:13:38.540Z,19.00
2018-07-02T00:14:10.495Z,19.00
2018-07-02T00:14:42.616Z,19.00
2018-07-02T00:15:14.544Z,19.00
2018-07-02T00:15:46.491Z,18.90
2018-07-02T00:16:18.431Z,18.90
2018-07-02T00:16:50.383Z,18.90
2018-07-02T00:17:22.319Z,18.90
2018-07-02T00:17:54.238Z,18.90
2018-07-02T00:18:26.166Z,18.90
2018-07-02T00:18:58.104Z,18.90
2018-07-02T00:19:30.146Z,18.90
2018-07-02T00:20:02.083Z,18.90
2018-07-02T00:20:34.042Z,18.90
2018-07-02T00:21:05.979Z,18.90
2018-07-02T00:21:37.930Z,18.90
2018-07-02T00:22:09.867Z,18.90
2018-07-02T00:22:41.822Z,18.90
2018-07-02T00:23:13.566Z,18.90
2018-07-02T00:23:45.523Z,18.90
2018-07-02T00:24:17.435Z,18.90
2018-07-02T00:24:49.366Z,18.90
2018-07-02T00:25:21.305Z,19.00
2018-07-02T00:25:53.259Z,19.00
2018-07-02T00:26:25.250Z,19.00
2018-07-02T00:26:57.190Z,18.90
2018-07-02T00:27:29.130Z,18.90
2018-07-02T00:28:01.067Z,18.90
2018-07-02T00:28:32.994Z,18.90
2018-07-02T00:29:04.956Z,18.90
2018-07-02T00:29:36.886Z,18.90
2018-07-02T00:30:09.366Z,18.90
2018-07-02T00:30:41.321Z,18.90
2018-07-02T00:31:13.264Z,18.90
2018-07-02T00:31:45.307Z,18.90
2018-07-02T00:32:17.191Z,18.90
2018-07-02T00:32:49.156Z,19.00
2018-07-02T00:33:21.075Z,19.00
2018-07-02T00:33:53.012Z,19.00
2018-07-02T00:34:24.969Z,18.90
2018-07-02T00:34:56.899Z,19.00
2018-07-02T00:35:28.852Z,18.90
2018-07-02T00:36:00.581Z,18.90
2018-07-02T00:36:32.499Z,18.90
2018-07-02T00:37:04.454Z,18.90
2018-07-02T00:37:36.381Z,18.90
2018-07-02T00:38:08.326Z,19.00
2018-07-02T00:38:40.274Z,19.00
2018-07-02T00:39:12.197Z,19.00
2018-07-02T00:39:44.113Z,18.90
2018-07-02T00:40:16.093Z,18.90
2018-07-02T00:40:48.030Z,18.90
2018-07-02T00:41:19.957Z,18.90
2018-07-02T00:42:24.405Z,18.90
2018-07-02T00:42:56.405Z,18.90
2018-07-02T00:43:28.369Z,18.90
2018-07-02T00:44:00.288Z,18.90
2018-07-02T00:44:32.238Z,18.90
2018-07-02T00:45:04.170Z,18.90
2018-07-02T00:45:36.123Z,18.80
2018-07-02T00:46:08.041Z,18.90
2018-07-02T00:46:39.964Z,18.90
2018-07-02T00:47:11.923Z,18.90
2018-07-02T00:47:43.848Z,18.90
2018-07-02T00:48:15.797Z,18.90
2018-07-02T00:48:47.750Z,18.90
2018-07-02T00:49:51.698Z,18.90
2018-07-02T00:50:23.715Z,18.90
2018-07-02T00:50:55.591Z,18.90
2018-07-02T00:51:27.553Z,18.90
2018-07-02T00:51:59.473Z,18.90
2018-07-02T00:52:31.414Z,18.90
2018-07-02T00:53:03.347Z,19.00
2018-07-02T00:53:35.274Z,19.00
2018-07-02T00:54:07.267Z,19.10
2018-07-02T00:54:39.214Z,19.10
2018-07-02T00:55:11.157Z,19.20
2018-07-02T00:55:43.113Z,19.30
2018-07-02T00:56:15.062Z,19.30
2018-07-02T00:56:46.804Z,19.30
2018-07-02T00:57:18.772Z,19.30
2018-07-02T00:57:50.791Z,19.30
2018-07-02T00:58:22.725Z,19.40
2018-07-02T00:58:54.726Z,19.30
2018-07-02T00:59:26.647Z,19.30
2018-07-02T00:59:58.585Z,19.30
2018-07-02T01:00:30.516Z,19.30
2018-07-02T01:01:02.473Z,19.30
2018-07-02T01:01:34.400Z,19.20
2018-07-02T01:02:06.125Z,19.30
2018-07-02T01:02:38.054Z,19.30
2018-07-02T01:03:09.994Z,19.30
2018-07-02T01:03:41.940Z,19.20
2018-07-02T01:04:13.887Z,19.20
2018-07-02T01:04:45.826Z,19.20
2018-07-02T01:05:17.857Z,19.20
2018-07-02T01:05:49.802Z,19.20
2018-07-02T01:06:21.533Z,19.20
2018-07-02T01:06:53.503Z,19.20
2018-07-02T01:07:25.262Z,19.20
2018-07-02T01:07:57.235Z,19.20
2018-07-02T01:08:29.176Z,19.20
2018-07-02T01:09:01.094Z,19.20
2018-07-02T01:09:33.029Z,19.20
2018-07-02T01:10:04.979Z,19.20
2018-07-02T01:10:36.915Z,19.20
2018-07-02T01:11:08.850Z,19.20
2018-07-02T01:11:40.787Z,19.20
2018-07-02T01:12:12.758Z,19.20
2018-07-02T01:12:44.678Z,19.20
2018-07-02T01:13:16.628Z,19.30
2018-07-02T01:13:48.554Z,19.30
2018-07-02T01:14:20.487Z,19.30
2018-07-02T01:14:52.431Z,19.30
2018-07-02T01:15:24.354Z,19.30
2018-07-02T01:15:56.293Z,19.40
2018-07-02T01:16:28.270Z,19.40
2018-07-02T01:17:00.202Z,19.40
2018-07-02T01:17:32.151Z,19.30
2018-07-02T01:18:04.112Z,19.30
2018-07-02T01:18:35.836Z,19.40
2018-07-02T01:19:07.767Z,19.40
2018-07-02T01:19:39.711Z,19.30
2018-07-02T01:20:11.643Z,19.40
2018-07-02T01:20:43.569Z,19.40
2018-07-02T01:21:15.503Z,19.40
2018-07-02T01:21:47.458Z,19.30
2018-07-02T01:22:19.382Z,19.30
2018-07-02T01:22:51.340Z,19.30
2018-07-02T01:23:23.277Z,19.30
2018-07-02T01:23:55.218Z,19.30
2018-07-02T01:24:27.149Z,19.30
2018-07-02T01:24:59.080Z,19.30
2018-07-02T01:25:31.018Z,19.30
2018-07-02T01:26:02.964Z,19.30
2018-07-02T01:26:34.938Z,19.30
2018-07-02T01:27:06.885Z,19.30
2018-07-02T01:27:38.799Z,19.30
2018-07-02T01:28:10.755Z,19.30
2018-07-02T01:28:42.680Z,19.30
2018-07-02T01:29:14.618Z,19.30
2018-07-02T01:29:46.547Z,19.30
2018-07-02T01:30:18.497Z,19.30
2018-07-02T01:30:50.446Z,19.40
2018-07-02T01:31:22.367Z,19.30
2018-07-02T01:31:54.293Z,19.40
2018-07-02T01:32:26.254Z,19.40
2018-07-02T01:32:58.181Z,19.40
2018-07-02T01:33:30.120Z,19.40
2018-07-02T01:34:02.043Z,19.40
2018-07-02T01:34:34.008Z,19.40
2018-07-02T01:35:05.941Z,19.40
2018-07-02T01:35:37.879Z,19.40
2018-07-02T01:36:09.810Z,19.30
2018-07-02T01:36:41.753Z,19.30
2018-07-02T01:37:13.686Z,19.30
2018-07-02T01:37:45.610Z,19.30
2018-07-02T01:38:17.536Z,19.30
2018-07-02T01:38:49.518Z,19.20
2018-07-02T01:39:21.488Z,19.20
2018-07-02T01:39:53.407Z,19.20
2018-07-02T01:40:25.358Z,19.20
2018-07-02T01:40:57.291Z,19.20
2018-07-02T01:41:29.238Z,19.20
2018-07-02T01:42:01.166Z,19.20
2018-07-02T01:42:33.099Z,19.20
2018-07-02T01:43:05.138Z,19.20
2018-07-02T01:43:37.067Z,19.20
2018-07-02T01:44:08.993Z,19.20
2018-07-02T01:44:40.926Z,19.20
2018-07-02T01:45:12.877Z,19.10
2018-07-02T01:45:44.805Z,19.10
2018-07-02T01:46:16.746Z,19.10
2018-07-02T01:46:48.698Z,19.10
2018-07-02T01:47:20.638Z,19.10
2018-07-02T01:47:52.577Z,19.10
2018-07-02T01:48:24.502Z,19.10
2018-07-02T01:48:56.434Z,19.10
2018-07-02T01:49:28.374Z,19.10
2018-07-02T01:50:00.188Z,19.10
2018-07-02T01:50:32.106Z,19.10
2018-07-02T01:51:04.026Z,19.10
2018-07-02T01:51:35.966Z,19.10
2018-07-02T01:52:07.917Z,19.10
2018-07-02T01:52:39.854Z,19.20
2018-07-02T01:53:11.784Z,19.20
2018-07-02T01:53:43.712Z,19.20
2018-07-02T01:54:15.640Z,19.20
2018-07-02T01:54:47.592Z,19.20
2018-07-02T01:55:19.546Z,19.30
2018-07-02T01:55:51.526Z,19.30
2018-07-02T01:56:23.517Z,19.30
2018-07-02T01:56:55.457Z,19.30
2018-07-02T01:57:27.394Z,19.30
2018-07-02T01:57:59.381Z,19.30
2018-07-02T01:58:31.154Z,19.20
2018-07-02T01:59:03.093Z,19.20
2018-07-02T01:59:34.857Z,19.20
2018-07-02T02:00:06.835Z,19.20
2018-07-02T02:00:38.737Z,19.20
2018-07-02T02:01:42.677Z,19.20
2018-07-02T02:02:14.618Z,19.20
2018-07-02T02:02:46.565Z,19.20
2018-07-02T02:03:18.501Z,19.20
2018-07-02T02:03:50.440Z,19.20
2018-07-02T02:04:22.371Z,19.20
2018-07-02T02:04:54.308Z,19.20
2018-07-02T02:05:26.232Z,19.20
2018-07-02T02:05:57.981Z,19.20
2018-07-02T02:06:29.916Z,19.20
2018-07-02T02:07:01.851Z,19.20
2018-07-02T02:07:33.794Z,19.20
2018-07-02T02:08:05.752Z,19.20
2018-07-02T02:08:37.702Z,19.20
2018-07-02T02:09:09.635Z,19.30
2018-07-02T02:09:41.565Z,19.30
2018-07-02T02:10:45.491Z,19.30
2018-07-02T02:11:17.425Z,19.30
2018-07-02T02:11:49.354Z,19.30
2018-07-02T02:12:21.300Z,19.30
2018-07-02T02:12:53.027Z,19.30
2018-07-02T02:13:24.962Z,19.20
2018-07-02T02:13:56.899Z,19.30
2018-07-02T02:14:28.630Z,19.30
2018-07-02T02:15:00.566Z,19.30
2018-07-02T02:15:32.506Z,19.30
2018-07-02T02:16:04.452Z,19.30
2018-07-02T02:16:36.380Z,19.30
2018-07-02T02:17:08.340Z,19.30
2018-07-02T02:17:40.263Z,19.30
2018-07-02T02:18:12.227Z,19.30
2018-07-02T02:18:44.158Z,19.30
2018-07-02T02:19:16.084Z,19.30
2018-07-02T02:19:48.012Z,19.30
2018-07-02T02:20:19.938Z,19.30
2018-07-02T02:21:23.676Z,19.30
2018-07-02T02:21:55.602Z,19.30
2018-07-02T02:22:27.541Z,19.30
2018-07-02T02:22:59.486Z,19.40
2018-07-02T02:23:31.421Z,19.40
2018-07-02T02:24:03.362Z,19.40
2018-07-02T02:24:35.292Z,19.30
2018-07-02T02:25:07.224Z,19.30
2018-07-02T02:25:39.164Z,19.30
2018-07-02T02:26:11.092Z,19.30
2018-07-02T02:26:43.018Z,19.30
2018-07-02T02:27:14.968Z,19.30
2018-07-02T02:27:46.913Z,19.30
2018-07-02T02:28:18.846Z,19.30
2018-07-02T02:28:50.785Z,19.30
2018-07-02T02:29:22.725Z,19.30
2018-07-02T02:29:54.658Z,19.30
2018-07-02T02:30:26.591Z,19.20
2018-07-02T02:30:58.626Z,19.20
2018-07-02T02:31:30.590Z,19.20
2018-07-02T02:32:02.517Z,19.20
2018-07-02T02:32:34.462Z,19.20
2018-07-02T02:33:06.397Z,19.20
2018-07-02T02:33:38.354Z,19.20
2018-07-02T02:34:10.290Z,19.20
2018-07-02T02:34:42.217Z,19.20
2018-07-02T02:35:14.142Z,19.20
2018-07-02T02:35:46.099Z,19.20
2018-07-02T02:36:18.086Z,19.20
2018-07-02T02:36:49.979Z,19.20
2018-07-02T02:37:21.911Z,19.20
2018-07-02T02:37:53.848Z,19.20
2018-07-02T02:38:25.820Z,19.10
2018-07-02T02:38:57.735Z,19.10
2018-07-02T02:39:29.673Z,19.10
2018-07-02T02:40:01.608Z,19.10
2018-07-02T02:40:33.518Z,19.10
2018-07-02T02:41:05.443Z,19.10
2018-07-02T02:41:37.394Z,19.10
2018-07-02T02:42:09.342Z,19.10
2018-07-02T02:42:41.295Z,19.10
2018-07-02T02:43:13.237Z,19.10
2018-07-02T02:43:45.179Z,19.10
2018-07-02T02:44:17.115Z,19.10
2018-07-02T02:44:49.026Z,19.10
2018-07-02T02:45:20.802Z,19.20
2018-07-02T02:45:52.748Z,19.20
2018-07-02T02:46:24.697Z,19.20
2018-07-02T02:46:56.640Z,19.20
2018-07-02T02:47:28.652Z,19.20
2018-07-02T02:48:00.554Z,19.30
2018-07-02T02:48:32.497Z,19.30
2018-07-02T02:49:04.501Z,19.30
2018-07-02T02:49:36.409Z,19.30
2018-07-02T02:50:08.340Z,19.30
2018-07-02T02:50:40.270Z,19.30
2018-07-02T02:51:12.199Z,19.30
2018-07-02T02:51:44.132Z,19.20
2018-07-02T02:52:16.070Z,19.20
2018-07-02T02:52:48.029Z,19.20
2018-07-02T02:53:19.961Z,19.20
2018-07-02T02:53:51.893Z,19.20
2018-07-02T02:54:23.840Z,19.20
2018-07-02T02:54:55.784Z,19.20
2018-07-02T02:55:27.742Z,19.20
2018-07-02T02:55:59.655Z,19.20
2018-07-02T02:56:31.611Z,19.20
2018-07-02T02:57:03.556Z,19.20
2018-07-02T02:57:35.487Z,19.20
2018-07-02T02:58:07.424Z,19.20
2018-07-02T02:58:39.363Z,19.20
2018-07-02T02:59:43.281Z,19.20
2018-07-02T03:00:15.205Z,19.20
2018-07-02T03:00:47.139Z,19.20
2018-07-02T03:01:19.078Z,19.10
2018-07-02T03:01:51.015Z,19.20
2018-07-02T03:02:22.951Z,19.10
2018-07-02T03:02:54.871Z,19.10
2018-07-02T03:03:26.644Z,19.10
2018-07-02T03:03:58.582Z,19.10
2018-07-02T03:04:30.527Z,19.10
2018-07-02T03:05:02.460Z,19.10
2018-07-02T03:05:34.386Z,19.10
2018-07-02T03:06:06.339Z,19.10
2018-07-02T03:06:38.273Z,19.10
2018-07-02T03:07:42.222Z,19.20
2018-07-02T03:08:14.158Z,19.20
2018-07-02T03:08:46.168Z,19.10
2018-07-02T03:09:18.103Z,19.10
2018-07-02T03:09:50.095Z,19.10
2018-07-02T03:10:21.996Z,19.10
2018-07-02T03:10:54.008Z,19.10
2018-07-02T03:11:25.963Z,19.10
2018-07-02T03:11:57.906Z,19.10
2018-07-02T03:12:29.651Z,19.10
2018-07-02T03:13:01.565Z,19.10
2018-07-02T03:13:33.494Z,19.20
2018-07-02T03:14:05.429Z,19.10
2018-07-02T03:14:37.391Z,19.20
2018-07-02T03:15:09.341Z,19.20
2018-07-02T03:15:41.243Z,19.20
2018-07-02T03:16:13.170Z,19.10
2018-07-02T03:16:45.128Z,19.10
2018-07-02T03:17:17.078Z,19.10
2018-07-02T03:17:48.998Z,19.10
2018-07-02T03:18:20.945Z,19.10
2018-07-02T03:18:52.946Z,19.10
2018-07-02T03:19:25.027Z,19.10
2018-07-02T03:19:56.978Z,19.10
2018-07-02T03:20:29.017Z,19.10
2018-07-02T03:21:00.891Z,19.00
2018-07-02T03:21:32.826Z,19.00
2018-07-02T03:22:04.784Z,19.00
2018-07-02T03:22:36.706Z,19.10
2018-07-02T03:23:08.642Z,19.00
2018-07-02T03:23:40.685Z,19.00
2018-07-02T03:24:12.622Z,19.00
2018-07-02T03:24:44.518Z,19.00
2018-07-02T03:25:16.297Z,19.00
2018-07-02T03:25:48.262Z,19.00
2018-07-02T03:26:51.998Z,19.00
2018-07-02T03:27:23.950Z,19.00
2018-07-02T03:27:55.885Z,19.00
2018-07-02T03:28:27.819Z,19.10
2018-07-02T03:28:59.744Z,19.10
2018-07-02T03:29:31.693Z,19.10
2018-07-02T03:30:03.653Z,19.10
2018-07-02T03:30:35.585Z,19.10
2018-07-02T03:31:07.526Z,19.10
2018-07-02T03:31:39.461Z,19.10
2018-07-02T03:32:11.414Z,19.10
2018-07-02T03:32:43.348Z,19.10
2018-07-02T03:33:15.299Z,19.10
2018-07-02T03:33:47.245Z,19.10
2018-07-02T03:34:19.181Z,19.00
2018-07-02T03:34:51.179Z,19.00
2018-07-02T03:35:23.144Z,19.10
2018-07-02T03:35:55.078Z,19.00
2018-07-02T03:36:26.999Z,19.10
2018-07-02T03:36:58.922Z,19.10
2018-07-02T03:37:30.873Z,19.00
2018-07-02T03:38:02.816Z,19.00
2018-07-02T03:38:34.726Z,19.10
2018-07-02T03:39:06.660Z,19.10
2018-07-02T03:39:38.555Z,19.10
2018-07-02T03:40:10.524Z,19.10
2018-07-02T03:40:42.434Z,19.10
2018-07-02T03:41:14.370Z,19.10
2018-07-02T03:41:46.323Z,19.10
2018-07-02T03:42:18.279Z,19.10
2018-07-02T03:42:50.196Z,19.10
2018-07-02T03:43:22.125Z,19.10
2018-07-02T03:43:54.073Z,19.10
2018-07-02T03:44:26.003Z,19.10
2018-07-02T03:44:57.942Z,19.10
2018-07-02T03:45:29.897Z,19.10
2018-07-02T03:46:01.833Z,19.10
2018-07-02T03:46:33.750Z,19.10
2018-07-02T03:47:05.697Z,19.10
2018-07-02T03:47:37.634Z,19.10
2018-07-02T03:48:09.411Z,19.10
2018-07-02T03:48:41.341Z,19.10
2018-07-02T03:49:45.308Z,19.00
2018-07-02T03:50:17.243Z,19.00
2018-07-02T03:50:49.176Z,19.00
2018-07-02T03:51:21.132Z,19.00
2018-07-02T03:51:53.052Z,19.00
2018-07-02T03:52:25.097Z,19.00
2018-07-02T03:52:57.340Z,19.00
2018-07-02T03:53:29.230Z,19.00
2018-07-02T03:54:01.343Z,19.10
2018-07-02T03:54:33.283Z,19.10
2018-07-02T03:55:05.221Z,19.10
2018-07-02T03:55:37.188Z,19.10
2018-07-02T03:56:09.137Z,19.10
2018-07-02T03:56:41.079Z,19.20
2018-07-02T03:57:13.001Z,19.20
2018-07-02T03:57:44.929Z,19.20
2018-07-02T03:58:16.878Z,19.30
2018-07-02T03:58:48.619Z,19.30
2018-07-02T03:59:20.554Z,19.30
2018-07-02T03:59:52.580Z,19.30
2018-07-02T04:00:24.514Z,19.30
2018-07-02T04:00:56.457Z,19.30
2018-07-02T04:01:28.396Z,19.30
2018-07-02T04:02:00.327Z,19.30
2018-07-02T04:02:32.272Z,19.30
2018-07-02T04:03:04.216Z,19.30
2018-07-02T04:03:36.189Z,19.30
2018-07-02T04:04:07.926Z,19.30
2018-07-02T04:04:39.883Z,19.30
2018-07-02T04:05:11.624Z,19.30
2018-07-02T04:05:43.566Z,19.30
2018-07-02T04:06:15.508Z,19.20
2018-07-02T04:06:47.430Z,19.20
2018-07-02T04:07:19.381Z,19.20
2018-07-02T04:07:51.331Z,19.20
2018-07-02T04:08:23.046Z,19.20
2018-07-02T04:08:55.007Z,19.20
2018-07-02T04:09:26.986Z,19.30
2018-07-02T04:09:58.934Z,19.30
2018-07-02T04:10:30.915Z,19.30
2018-07-02T04:11:02.844Z,19.30
2018-07-02T04:11:34.782Z,19.30
2018-07-02T04:12:06.835Z,19.40
2018-07-02T04:12:38.709Z,19.40
2018-07-02T04:13:10.641Z,19.40
2018-07-02T04:13:42.578Z,19.40
2018-07-02T04:14:14.519Z,19.40
2018-07-02T04:14:46.485Z,19.40
2018-07-02T04:15:18.428Z,19.40
2018-07-02T04:15:50.189Z,19.40
2018-07-02T04:16:22.120Z,19.40
2018-07-02T04:16:54.123Z,19.40
2018-07-02T04:17:26.096Z,19.40
2018-07-02T04:17:58.026Z,19.40
2018-07-02T04:18:29.971Z,19.50
2018-07-02T04:19:01.941Z,19.50
2018-07-02T04:19:33.894Z,19.50
2018-07-02T04:20:05.839Z,19.60
2018-07-02T04:20:38.042Z,19.60
2018-07-02T04:21:10.048Z,19.60
2018-07-02T04:21:41.990Z,19.60
2018-07-02T04:22:13.918Z,19.60
2018-07-02T04:22:46.067Z,19.60
2018-07-02T04:23:18.000Z,19.60
2018-07-02T04:23:50.129Z,19.60
2018-07-02T04:24:22.043Z,19.60
2018-07-02T04:24:54.025Z,19.60
2018-07-02T04:25:25.944Z,19.60
2018-07-02T04:25:57.927Z,19.60
2018-07-02T04:26:29.803Z,19.60
2018-07-02T04:27:01.780Z,19.60
2018-07-02T04:27:33.697Z,19.60
2018-07-02T04:28:05.427Z,19.50
2018-07-02T04:28:37.358Z,19.50
2018-07-02T04:29:09.295Z,19.50
2018-07-02T04:29:41.218Z,19.50
2018-07-02T04:30:13.150Z,19.50
2018-07-02T04:30:45.085Z,19.50
2018-07-02T04:31:17.074Z,19.50
2018-07-02T04:31:49.004Z,19.50
2018-07-02T04:32:21.005Z,19.50
2018-07-02T04:32:52.922Z,19.50
2018-07-02T04:33:25.181Z,19.50
2018-07-02T04:33:57.128Z,19.50
2018-07-02T04:34:29.096Z,19.50
2018-07-02T04:35:01.024Z,19.50
2018-07-02T04:35:33.074Z,19.60
2018-07-02T04:36:37.082Z,19.60
2018-07-02T04:37:09.031Z,19.60
2018-07-02T04:37:40.959Z,19.50
2018-07-02T04:38:12.886Z,19.50
2018-07-02T04:38:44.808Z,19.50
2018-07-02T04:39:16.815Z,19.50
2018-07-02T04:39:48.750Z,19.50
2018-07-02T04:40:20.673Z,19.50
2018-07-02T04:40:52.605Z,19.50
2018-07-02T04:41:24.568Z,19.40
2018-07-02T04:41:56.493Z,19.40
2018-07-02T04:42:28.423Z,19.40
2018-07-02T04:43:00.438Z,19.30
2018-07-02T04:43:32.279Z,19.30
2018-07-02T04:44:04.204Z,19.30
2018-07-02T04:44:36.169Z,19.30
2018-07-02T04:45:08.190Z,19.30
2018-07-02T04:45:40.093Z,19.40
2018-07-02T04:46:12.094Z,19.40
2018-07-02T04:46:43.991Z,19.40
2018-07-02T04:47:15.915Z,19.40
2018-07-02T04:47:47.836Z,19.40
2018-07-02T04:48:19.773Z,19.50
2018-07-02T04:48:51.693Z,19.40
2018-07-02T04:49:23.614Z,19.40
2018-07-02T04:49:55.575Z,19.40
2018-07-02T04:50:27.490Z,19.40
2018-07-02T04:50:59.423Z,19.40
2018-07-02T04:51:31.364Z,19.30
2018-07-02T04:52:03.302Z,19.30
2018-07-02T04:52:35.259Z,19.30
2018-07-02T04:53:07.195Z,19.30
2018-07-02T04:53:39.123Z,19.30
2018-07-02T04:54:11.076Z,19.30
2018-07-02T04:54:43.014Z,19.30
2018-07-02T04:55:14.949Z,19.30
2018-07-02T04:55:46.932Z,19.30
2018-07-02T04:56:18.879Z,19.30
2018-07-02T04:56:50.807Z,19.30
2018-07-02T04:57:22.730Z,19.30
2018-07-02T04:57:54.695Z,19.30
2018-07-02T04:58:26.417Z,19.20
2018-07-02T04:58:58.366Z,19.30
2018-07-02T04:59:30.313Z,19.30
2018-07-02T05:00:02.104Z,19.20
2018-07-02T05:00:34.058Z,19.30
2018-07-02T05:01:05.763Z,19.20
2018-07-02T05:01:37.488Z,19.30
2018-07-02T05:02:09.225Z,19.30
2018-07-02T05:02:40.951Z,19.30
2018-07-02T05:03:12.688Z,19.30
2018-07-02T05:03:44.451Z,19.30
2018-07-02T05:04:16.181Z,19.20
2018-07-02T05:04:47.915Z,19.20
2018-07-02T05:05:19.670Z,19.20
2018-07-02T05:05:51.398Z,19.20
2018-07-02T05:06:23.129Z,19.20
2018-07-02T05:06:54.868Z,19.20
2018-07-02T05:07:26.577Z,19.20
2018-07-02T05:07:58.295Z,19.20
2018-07-02T05:08:30.038Z,19.20
2018-07-02T05:09:01.770Z,19.20
2018-07-02T05:09:33.669Z,19.20
2018-07-02T05:10:05.453Z,19.20
2018-07-02T05:10:37.169Z,19.20
2018-07-02T05:11:08.945Z,19.20
2018-07-02T05:11:40.669Z,19.20
2018-07-02T05:12:12.413Z,19.20
2018-07-02T05:12:44.150Z,19.10
2018-07-02T05:13:15.868Z,19.10
2018-07-02T05:13:47.593Z,19.10
2018-07-02T05:14:19.460Z,19.10
2018-07-02T05:14:51.179Z,19.10
2018-07-02T05:15:23.076Z,19.10
2018-07-02T05:15:54.813Z,19.10
2018-07-02T05:16:26.568Z,19.10
2018-07-02T05:16:58.323Z,19.10
2018-07-02T05:17:30.242Z,19.10
2018-07-02T05:18:01.979Z,19.10
2018-07-02T05:18:33.700Z,19.10
2018-07-02T05:19:05.411Z,19.10
2018-07-02T05:19:37.184Z,19.10
2018-07-02T05:20:08.943Z,19.10
2018-07-02T05:20:40.671Z,19.10
2018-07-02T05:21:12.418Z,19.10
2018-07-02T05:21:44.159Z,19.10
2018-07-02T05:22:15.895Z,19.10
2018-07-02T05:22:47.632Z,19.10
2018-07-02T05:23:19.401Z,19.10
2018-07-02T05:23:51.116Z,19.10
2018-07-02T05:24:22.835Z,19.10
2018-07-02T05:24:54.573Z,19.00
2018-07-02T05:25:26.314Z,19.00
2018-07-02T05:25:58.065Z,19.00
2018-07-02T05:26:29.811Z,19.00
2018-07-02T05:27:01.511Z,19.10
2018-07-02T05:27:33.370Z,19.00
2018-07-02T05:28:05.088Z,19.10
2018-07-02T05:28:36.812Z,19.10
2018-07-02T05:29:08.539Z,19.00
2018-07-02T05:29:40.275Z,19.10
2018-07-02T05:30:12.163Z,19.10
2018-07-02T05:30:43.893Z,19.10
2018-07-02T05:31:15.612Z,19.10
2018-07-02T05:31:47.441Z,19.10
2018-07-02T05:32:19.197Z,19.00
2018-07-02T05:32:50.920Z,19.00
2018-07-02T05:33:22.740Z,19.00
2018-07-02T05:33:54.486Z,19.00
2018-07-02T05:34:26.211Z,19.10
2018-07-02T05:34:58.081Z,19.10
2018-07-02T05:35:29.801Z,19.10
2018-07-02T05:36:01.523Z,19.10
2018-07-02T05:36:33.259Z,19.10
2018-07-02T05:37:04.982Z,19.10
2018-07-02T05:37:36.725Z,19.10
2018-07-02T05:38:08.455Z,19.20
2018-07-02T05:38:40.180Z,19.20
2018-07-02T05:39:11.901Z,19.20
2018-07-02T05:39:43.653Z,19.20
2018-07-02T05:40:15.437Z,19.20
2018-07-02T05:40:47.157Z,19.10
2018-07-02T05:41:18.894Z,19.20
2018-07-02T05:41:50.643Z,19.10
2018-07-02T05:42:22.365Z,19.10
2018-07-02T05:42:54.104Z,19.20
2018-07-02T05:43:25.839Z,19.20
2018-07-02T05:43:57.618Z,19.20
2018-07-02T05:44:29.303Z,19.10
2018-07-02T05:45:01.034Z,19.10
2018-07-02T05:45:32.788Z,19.10
2018-07-02T05:46:04.517Z,19.10
2018-07-02T05:46:36.241Z,19.10
2018-07-02T05:47:07.986Z,19.10
2018-07-02T05:47:39.717Z,19.10
2018-07-02T05:48:11.501Z,19.10
2018-07-02T05:48:43.235Z,19.10
2018-07-02T05:49:14.965Z,19.20
2018-07-02T05:49:46.706Z,19.20
2018-07-02T05:50:18.683Z,19.20
2018-07-02T05:50:50.424Z,19.20
2018-07-02T05:51:22.141Z,19.20
2018-07-02T05:51:53.882Z,19.20
2018-07-02T05:52:25.804Z,19.20
2018-07-02T05:52:57.525Z,19.30
2018-07-02T05:53:29.253Z,19.30
2018-07-02T05:54:01.352Z,19.30
2018-07-02T05:54:33.107Z,19.30
2018-07-02T05:55:04.908Z,19.20
2018-07-02T05:56:08.648Z,19.20
2018-07-02T05:56:40.407Z,19.10
2018-07-02T05:57:12.136Z,19.20
2018-07-02T05:57:43.858Z,19.10
2018-07-02T05:58:15.620Z,19.10
2018-07-02T05:58:47.343Z,19.10
2018-07-02T05:59:19.078Z,19.10
2018-07-02T05:59:51.103Z,19.10
2018-07-02T06:00:22.911Z,19.20
2018-07-02T06:00:54.811Z,19.20
2018-07-02T06:01:26.812Z,19.20
2018-07-02T06:01:58.709Z,19.20
2018-07-02T06:02:30.443Z,19.20
2018-07-02T06:03:02.177Z,19.20
2018-07-02T06:03:33.910Z,19.20
2018-07-02T06:04:05.845Z,19.20
2018-07-02T06:04:37.595Z,19.20
2018-07-02T06:05:09.318Z,19.10
2018-07-02T06:05:41.090Z,19.00
2018-07-02T06:06:12.824Z,19.00
2018-07-02T06:06:44.669Z,19.00
2018-07-02T06:07:16.493Z,19.00
2018-07-02T06:07:48.263Z,19.00
2018-07-02T06:08:20.174Z,19.00
2018-07-02T06:08:51.931Z,19.10
2018-07-02T06:09:23.654Z,19.10
2018-07-02T06:09:55.420Z,19.10
2018-07-02T06:10:27.171Z,19.20
2018-07-02T06:10:58.944Z,19.20
2018-07-02T06:11:30.681Z,19.10
2018-07-02T06:12:02.403Z,19.10
2018-07-02T06:12:34.336Z,19.10
2018-07-02T06:13:06.083Z,19.10
2018-07-02T06:13:38.041Z,19.20
2018-07-02T06:14:09.787Z,19.20
2018-07-02T06:14:41.516Z,19.20
2018-07-02T06:15:13.491Z,19.20
2018-07-02T06:15:45.260Z,19.20
2018-07-02T06:16:49.023Z,19.30
2018-07-02T06:17:20.759Z,19.30
2018-07-02T06:17:52.474Z,19.20
2018-07-02T06:18:24.231Z,19.30
2018-07-02T06:18:55.956Z,19.20
2018-07-02T06:19:27.674Z,19.20
2018-07-02T06:19:59.429Z,19.20
2018-07-02T06:20:31.158Z,19.20
2018-07-02T06:21:02.895Z,19.20
2018-07-02T06:21:34.624Z,19.10
2018-07-02T06:22:06.598Z,19.10
2018-07-02T06:22:38.343Z,19.10
2018-07-02T06:23:10.066Z,19.10
2018-07-02T06:23:41.868Z,19.20
2018-07-02T06:24:13.570Z,19.20
2018-07-02T06:24:45.326Z,19.20
2018-07-02T06:25:17.281Z,19.20
2018-07-02T06:25:49.223Z,19.30
2018-07-02T06:26:20.954Z,19.30
2018-07-02T06:26:52.685Z,19.30
2018-07-02T06:27:24.418Z,19.30
2018-07-02T06:27:56.158Z,19.30
2018-07-02T06:28:27.900Z,19.30
2018-07-02T06:28:59.636Z,19.30
2018-07-02T06:29:31.389Z,19.30
2018-07-02T06:30:03.114Z,19.30
2018-07-02T06:30:34.919Z,19.30
2018-07-02T06:31:06.777Z,19.30
2018-07-02T06:31:38.495Z,19.30
2018-07-02T06:32:10.217Z,19.30
2018-07-02T06:32:41.957Z,19.30
2018-07-02T06:33:13.686Z,19.30
2018-07-02T06:33:45.455Z,19.30
2018-07-02T06:34:17.199Z,19.30
2018-07-02T06:34:48.938Z,19.30
2018-07-02T06:35:20.729Z,19.30
2018-07-02T06:35:52.459Z,19.30
2018-07-02T06:36:24.192Z,19.30
2018-07-02T06:36:55.991Z,19.30
2018-07-02T06:37:27.736Z,19.30
2018-07-02T06:37:59.481Z,19.30
2018-07-02T06:38:31.308Z,19.30
2018-07-02T06:39:03.036Z,19.40
2018-07-02T06:40:06.807Z,19.40
2018-07-02T06:40:38.535Z,19.50
2018-07-02T06:41:10.301Z,19.40
2018-07-02T06:41:42.030Z,19.40
2018-07-02T06:42:13.751Z,19.50
2018-07-02T06:42:45.512Z,19.40
2018-07-02T06:43:17.236Z,19.40
2018-07-02T06:43:48.975Z,19.50
2018-07-02T06:44:20.722Z,19.50
2018-07-02T06:44:52.438Z,19.50
2018-07-02T06:45:24.167Z,19.50
2018-07-02T06:45:55.902Z,19.50
2018-07-02T06:46:27.638Z,19.50
2018-07-02T06:46:59.443Z,19.50
2018-07-02T06:47:31.171Z,19.60
2018-07-02T06:48:02.991Z,19.60
2018-07-02T06:48:34.765Z,19.50
2018-07-02T06:49:06.650Z,19.60
2018-07-02T06:49:38.375Z,19.60
2018-07-02T06:50:10.110Z,19.60
2018-07-02T06:50:41.851Z,19.60
2018-07-02T06:51:13.703Z,19.60
2018-07-02T06:51:45.426Z,19.60
2018-07-02T06:52:17.207Z,19.60
2018-07-02T06:52:48.957Z,19.60
2018-07-02T06:53:20.670Z,19.60
2018-07-02T06:53:52.411Z,19.50
2018-07-02T06:54:24.164Z,19.50
2018-07-02T06:54:55.878Z,19.50
2018-07-02T06:55:27.727Z,19.50
2018-07-02T06:55:59.461Z,19.50
2018-07-02T06:56:31.226Z,19.40
2018-07-02T06:57:35.002Z,19.40
2018-07-02T06:58:06.735Z,19.40
2018-07-02T06:58:38.475Z,19.40